Time;durP1;ratioP1;P1;durP2;ratioP2;P2;SDS_P1;SDS_P2;PMS_P1;PMS_P2;Temp;Humidity;BMP_temperature;BMP_pressure;BME280_temperature;BME280_humidity;BME280_pressure;Samples;Min_cycle;Max_cycle;Signal;HPM_P1;HPM_P2
2021/11/12 00:13:30;;;;;;;;;;;;;;;;;;5090490;28;1340;-87
2021/11/12 00:15:58;;;;;;;;;;;;;;;;;;5099943;28;1976;-86
2021/11/12 00:18:24;;;;;;;;;;;;;;;;;;5106484;28;1123;-87
2021/11/12 00:20:49;;;;;;;;;;;;;;;;;;5081075;28;1416;-87
2021/11/12 00:23:15;;;;;;;;;;;;;;;;;;5103698;28;1466;-87
2021/11/12 00:25:42;;;;;;;;;;;;;;;;;;5089418;28;1499;-86
2021/11/12 00:28:07;;;;;;;;;;;;;;;;;;5099554;28;1065;-87
2021/11/12 00:30:46;;;;;;;;;;;;;;;;;;5088086;28;1432;-87
2021/11/12 00:36:04;;;;;;;;;;;;;;;;;;5074057;28;1963;-87
2021/11/12 00:38:35;;;;;;;;;;;;;;;;;;5077186;28;1480;-87
2021/11/12 00:43:32;;;;;;;;;;;;;;;;;;5097728;28;1319;-88
2021/11/12 00:46:11;;;;;;;;;;;;;;;;;;5098546;28;1407;-87
2021/11/12 00:48:46;;;;;;;;;;;;;;;;;;5090416;28;1168;-86
2021/11/12 00:51:18;;;;;;;;;;;;;;;;;;5087443;28;1361;-87
2021/11/12 00:53:51;;;;;;;;;;;;;;;;;;5080411;28;883;-87
2021/11/12 00:56:17;;;;;;;;;;;;;;;;;;5062740;28;1959;-87
2021/11/12 00:58:42;;;;;;;;;;;;;;;;;;5073977;28;1233;-87
2021/11/12 01:01:08;;;;;;;;;;;;;;;;;;5089219;28;1312;-87
2021/11/12 01:03:33;;;;;;;;;;;;;;;;;;5097004;28;1532;-87
2021/11/12 01:05:58;;;;;;;;;;;;;;;;;;5076993;28;1603;-87
2021/11/12 01:08:23;;;;;;;;;;;;;;;;;;5066026;28;1505;-87
2021/11/12 01:10:48;;;;;;;;;;;;;;;;;;5081880;28;1580;-87
2021/11/12 01:13:14;;;;;;;;;;;;;;;;;;5116464;22;3539;-52
2021/11/12 01:15:39;;;;;;;;;;;;;;;;;;5105269;28;1917;-52
2021/11/12 01:18:04;;;;;;;;;;;;;;;;;;5105276;28;1421;-53
2021/11/12 01:20:29;;;;;;;;;;;;;;;;;;5102952;28;1983;-52
2021/11/12 01:22:54;;;;;;;;;;;;;;;;;;5108564;28;1110;-53
2021/11/12 01:25:20;;;;;;;;;;;;;;;;;;5106584;28;1525;-53
2021/11/12 01:27:45;;;;;;;;;;;;;;;;;;5107285;28;1424;-53
2021/11/12 01:30:11;;;;;;;;;;;;;;;;;;5104391;28;1831;-52
2021/11/12 01:32:36;;;;;;;;;;;;;;;;;;5106677;28;1146;-52
2021/11/12 01:35:02;;;;;;;;;;;;;;;;;;5106815;28;1992;-52
2021/11/12 01:37:28;;;;;;;;;;;;;;;;;;5107896;28;1599;-53
2021/11/12 01:39:56;;;;;;;;;;;;;;;;;;5107170;28;1397;-53
2021/11/12 01:42:22;;;;;;;;;;;;;;;;;;5106001;28;1088;-53
2021/11/12 01:44:52;;;;;;;;;;;;;;;;;;5107293;28;1351;-53
2021/11/12 01:52:16;;;;;;;;;;;;;;;;;;5103796;28;1665;-52
2021/11/12 01:54:51;;;;;;;;;;;;;;;;;;5106431;28;1921;-54
2021/11/12 01:59:51;;;;;;;;;;;;;;;;;;5105438;28;1319;-53
2021/11/12 02:02:16;;;;;;;;;;;;;;;;;;5103781;28;1293;-52
2021/11/12 02:04:41;;;;;;;;;;;;;;;;;;5100964;28;1567;-53
2021/11/12 02:07:07;;;;;;;;;;;;;;;;;;5106331;28;1443;-53
2021/11/12 02:09:32;;;;;;;;;;;;;;;;;;5107013;28;1297;-54
2021/11/12 02:12:01;;;;;;;;;;;;;;;;;;5103125;28;1541;-53
2021/11/12 02:14:28;;;;;;;;;;;;;;;;;;5105691;28;1906;-54
2021/11/12 02:16:56;;;;;;;;;;;;;;;;;;5105721;28;1138;-52
2021/11/12 02:19:22;;;;;;;;;;;;;;;;;;5105090;28;1482;-53
2021/11/12 02:21:52;;;;;;;;;;;;;;;;;;5112134;28;1209;-52
2021/11/12 02:24:18;;;;;;;;;;;;;;;;;;5112181;28;1154;-53
2021/11/12 02:26:46;;;;;;;;;;;;;;;;;;5111956;28;1212;-53
2021/11/12 02:29:12;;;;;;;;;;;;;;;;;;5106825;28;1502;-52
2021/11/12 02:31:37;;;;;;;;;;;;;;;;;;5111473;28;1123;-53
2021/11/12 02:34:07;;;;;;;;;;;;;;;;;;5107810;28;1496;-52
2021/11/12 02:36:32;;;;;;;;;;;;;;;;;;5110619;28;1971;-53
2021/11/12 02:38:58;;;;;;;;;;;;;;;;;;5110983;28;1215;-53
2021/11/12 02:41:24;;;;;;;;;;;;;;;;;;5111823;28;1055;-53
2021/11/12 02:43:49;;;;;;;;;;;;;;;;;;5110772;28;1375;-53
2021/11/12 02:46:15;;;;;;;;;;;;;;;;;;5110793;28;1471;-53
2021/11/12 02:48:42;;;;;;;;;;;;;;;;;;5111256;28;1276;-53
2021/11/12 02:51:09;;;;;;;;;;;;;;;;;;5109867;28;937;-53
2021/11/12 02:53:34;;;;;;;;;;;;;;;;;;5109060;28;1173;-54
2021/11/12 02:56:03;;;;;;;;;;;;;;;;;;5110573;28;1963;-53
2021/11/12 02:58:30;;;;;;;;;;;;;;;;;;5106910;28;1514;-53
2021/11/12 03:00:55;;;;;;;;;;;;;;;;;;5110894;28;1071;-52
2021/11/12 03:03:21;;;;;;;;;;;;;;;;;;5108488;28;1470;-51
2021/11/12 03:05:46;;;;;;;;;;;;;;;;;;5109395;28;1398;-52
2021/11/12 03:08:12;;;;;;;;;;;;;;;;;;5105433;28;1633;-53
2021/11/12 03:10:37;;;;;;;;;;;;;;;;;;5111004;28;1169;-53
2021/11/12 03:13:02;;;;;;;;;;;;;;;;;;5109075;28;1959;-52
2021/11/12 03:15:29;;;;;;;;;;;;;;;;;;5109763;28;1971;-53
2021/11/12 03:17:55;;;;;;;;;;;;;;;;;;5109026;28;1411;-54
2021/11/12 03:20:20;;;;;;;;;;;;;;;;;;5107040;28;1480;-54
2021/11/12 03:22:56;;;;;;;;;;;;;;;;;;5109066;28;1202;-52
2021/11/12 03:25:29;;;;;;;;;;;;;;;;;;5106965;28;1483;-53
2021/11/12 04:03:02;;;;;;;;;;;;;;;;;;5109357;28;1127;-53
2021/11/12 04:22:00;;;;;;;;;;;;;;;;;;5109038;28;1118;-53
2021/11/12 04:41:18;;;;;;;;;;;;;;;;;;5107136;28;1561;-53
2021/11/12 05:02:58;;;;;;;;;;;;;;;;;;5107737;28;1080;-52
2021/11/12 05:56:40;;;;;;;;;;;;;;;;;;5109869;28;1963;-52
2021/11/12 05:59:06;;;;;;;;;;;;;;;;;;5110131;28;1335;-51
2021/11/12 06:01:31;;;;;;;;;;;;;;;;;;5111094;28;1586;-52
2021/11/12 06:03:57;;;;;;;;;;;;;;;;;;5108689;28;1553;-53
2021/11/12 06:06:22;;;;;;;;;;;;;;;;;;5110669;28;1096;-53
2021/11/12 06:08:47;;;;;;;;;;;;;;;;;;5112017;28;1279;-54
2021/11/12 06:11:12;;;;;;;;;;;;;;;;;;5111379;28;1608;-53
2021/11/12 06:13:38;;;;;;;;;;;;;;;;;;5110697;28;1486;-53
2021/11/12 06:16:04;;;;;;;;;;;;;;;;;;5109459;28;1917;-54
2021/11/12 06:18:29;;;;;;;;;;;;;;;;;;5109390;28;1364;-52
2021/11/12 06:20:54;;;;;;;;;;;;;;;;;;5106586;28;1522;-53
2021/11/12 06:23:19;;;;;;;;;;;;;;;;;;5110852;28;1115;-53
2021/11/12 06:25:44;;;;;;;;;;;;;;;;;;5111110;28;1208;-53
2021/11/12 06:28:10;;;;;;;;;;;;;;;;;;5112023;28;1376;-52
2021/11/12 06:30:35;;;;;;;;;;;;;;;;;;5110473;28;1464;-53
2021/11/12 06:33:00;;;;;;;;;;;;;;;;;;5048341;28;1074;-53
2021/11/12 06:35:27;;;;;;;;;;;;;;;;;;5109990;28;1914;-52
2021/11/12 06:37:52;;;;;;;;;;;;;;;;;;5109716;28;1515;-53
2021/11/12 06:40:19;;;;;;;;;;;;;;;;;;5111450;28;1283;-54
2021/11/12 06:50:56;;;;;;;;;;;;;;;;;;5109200;28;1449;-53
2021/11/12 06:53:22;;;;;;;;;;;;;;;;;;5111400;28;1241;-53
2021/11/12 06:55:47;;;;;;;;;;;;;;;;;;5110420;28;1929;-53
2021/11/12 06:58:12;;;;;;;;;;;;;;;;;;5105865;28;1583;-53
2021/11/12 07:00:37;;;;;;;;;;;;;;;;;;5110271;28;1111;-53
2021/11/12 07:03:03;;;;;;;;;;;;;;;;;;5108654;28;1499;-50
2021/11/12 07:05:28;;;;;;;;;;;;;;;;;;5107395;28;1340;-53
2021/11/12 07:07:53;;;;;;;;;;;;;;;;;;5109080;28;1272;-52
2021/11/12 07:10:18;;;;;;;;;;;;;;;;;;5110556;28;1150;-52
2021/11/12 07:12:44;;;;;;;;;;;;;;;;;;5109919;28;1554;-51
2021/11/12 07:15:09;;;;;;;;;;;;;;;;;;5108679;28;1965;-53
2021/11/12 07:17:34;;;;;;;;;;;;;;;;;;5110193;28;1158;-53
2021/11/12 07:19:59;;;;;;;;;;;;;;;;;;5106688;28;1455;-52
2021/11/12 07:22:25;;;;;;;;;;;;;;;;;;5110111;28;1103;-52
2021/11/12 07:24:50;;;;;;;;;;;;;;;;;;5107132;28;1547;-54
2021/11/12 07:27:15;;;;;;;;;;;;;;;;;;5110249;28;1175;-53
2021/11/12 07:29:43;;;;;;;;;;;;;;;;;;5108982;28;1475;-52
2021/11/12 07:32:08;;;;;;;;;;;;;;;;;;5106098;28;1562;-53
2021/11/12 07:34:34;;;;;;;;;;;;;;;;;;5107923;28;1473;-53
2021/11/12 07:37:12;;;;;;;;;;;;;;;;;;5104472;28;1898;-53
2021/11/12 07:42:19;;;;;;;;;;;;;;;;;;5108026;28;1670;-53
2021/11/12 07:47:24;;;;;;;;;;;;;;;;;;5102496;28;1426;-53
2021/11/12 07:49:51;;;;;;;;;;;;;;;;;;5108681;28;1450;-53
2021/11/12 07:52:17;;;;;;;;;;;;;;;;;;5109014;27;1143;-52
2021/11/12 07:54:42;;;;;;;;;;;;;;;;;;5108691;28;1945;-53
2021/11/12 07:57:07;;;;;;;;;;;;;;;;;;5108627;28;1096;-52
2021/11/12 07:59:33;;;;;;;;;;;;;;;;;;5106162;28;1492;-52
2021/11/12 08:01:58;;;;;;;;;;;;;;;;;;5107921;28;1213;-53
2021/11/12 08:04:23;;;;;;;;;;;;;;;;;;5106251;28;1377;-53
2021/11/12 08:06:51;;;;;;;;;;;;;;;;;;5105994;28;1581;-53
2021/11/12 08:09:18;;;;;;;;;;;;;;;;;;5107077;28;1269;-53
2021/11/12 08:12:04;;;;;;;;;;;;;;;;;;5105264;28;1526;-52
2021/11/12 08:22:31;;;;;;;;;;;;;;;;;;5103930;28;1123;-54
2021/11/12 08:33:00;;;;;;;;;;;;;;;;;;5104854;28;1359;-53
2021/11/12 08:38:07;;;;;;;;;;;;;;;;;;5105875;28;1484;-53
2021/11/12 08:43:06;;;;;;;;;;;;;;;;;;5108633;28;1119;-51
2021/11/12 08:45:44;;;;;;;;;;;;;;;;;;5106512;28;1551;-53
2021/11/12 08:48:16;;;;;;;;;;;;;;;;;;5108232;28;1251;-53
2021/11/12 08:50:42;;;;;;;;;;;;;;;;;;5105474;28;1579;-54
2021/11/12 08:53:09;;;;;;;;;;;;;;;;;;5108172;28;1187;-53
2021/11/12 08:55:35;;;;;;;;;;;;;;;;;;5107567;28;1962;-52
2021/11/12 08:58:00;;;;;;;;;;;;;;;;;;5107176;28;1383;-53
2021/11/12 09:00:25;;;;;;;;;;;;;;;;;;5117272;22;3839;-47
2021/11/12 09:02:51;;;;;;;;;;;;;;;;;;5062101;28;1465;-49
2021/11/12 09:05:17;;;;;;;;;;;;;;;;;;5061014;28;1819;-50
2021/11/12 09:07:44;;;;;;;;;;;;;;;;;;5046789;28;2434;-49
2021/11/12 09:10:09;;;;;;;;;;;;;;;;;;5063178;28;1066;-50
2021/11/12 09:12:34;;;;;;;;;;;;;;;;;;5065244;28;1486;-49
2021/11/12 09:15:01;;;;;;;;;;;;;;;;;;5060789;28;1966;-48
2021/11/12 09:17:28;;;;;;;;;;;;;;;;;;5066409;28;1532;-49
2021/11/12 09:19:57;;;;;;;;;;;;;;;;;;5064564;28;1692;-50
2021/11/12 09:22:23;;;;;;;;;;;;;;;;;;5067192;28;1278;-49
2021/11/12 09:24:49;;;;;;;;;;;;;;;;;;5067231;28;1148;-49
2021/11/12 09:27:14;;;;;;;;;;;;;;;;;;5064680;28;1480;-49
2021/11/12 09:29:39;;;;;;;;;;;;;;;;;;5063363;28;1375;-49
2021/11/12 09:32:05;;;;;;;;;;;;;;;;;;5064875;28;1636;-48
2021/11/12 09:34:34;;;;;;;;;;;;;;;;;;5065602;28;1451;-50
2021/11/12 09:37:00;;;;;;;;;;;;;;;;;;5065083;28;1967;-49
2021/11/12 09:39:25;;;;;;;;;;;;;;;;;;5063846;28;1222;-49
2021/11/12 09:41:50;;;;;;;;;;;;;;;;;;5064746;28;1510;-49
2021/11/12 09:44:16;;;;;;;;;;;;;;;;;;5049754;28;984;-50
2021/11/12 09:46:41;;;;;;;;;;;;;;;;;;5064206;28;1649;-50
2021/11/12 09:49:06;;;;;;;;;;;;;;;;;;5063470;28;1604;-49
2021/11/12 09:51:31;;;;;;;;;;;;;;;;;;5064958;28;1270;-49
2021/11/12 09:53:57;;;;;;;;;;;;;;;;;;5067153;28;1160;-49
2021/11/12 09:56:22;;;;;;;;;;;;;;;;;;5065296;28;1906;-50
2021/11/12 09:58:47;;;;;;;;;;;;;;;;;;5063175;28;1423;-49
2021/11/12 10:01:12;;;;;;;;;;;;;;;;;;5060911;28;1406;-49
2021/11/12 10:03:47;;;;;;;;;;;;;;;;;;5063786;28;1540;-49
2021/11/12 10:06:18;;;;;;;;;;;;;;;;;;5062886;28;1545;-49
2021/11/12 10:08:43;;;;;;;;;;;;;;;;;;5065014;28;1172;-49
2021/11/12 10:11:10;;;;;;;;;;;;;;;;;;5064561;28;1762;-49
2021/11/12 10:13:35;;;;;;;;;;;;;;;;;;5063776;28;1356;-49
2021/11/12 10:16:13;;;;;;;;;;;;;;;;;;5064180;28;1914;-49
2021/11/12 10:18:57;;;;;;;;;;;;;;;;;;5063958;28;1179;-49
2021/11/12 10:21:26;;;;;;;;;;;;;;;;;;5063170;28;1477;-49
2021/11/12 10:23:51;;;;;;;;;;;;;;;;;;5063725;28;1164;-49
2021/11/12 10:26:17;;;;;;;;;;;;;;;;;;5045539;28;1474;-49
2021/11/12 10:28:42;;;;;;;;;;;;;;;;;;5064282;28;1101;-49
2021/11/12 10:31:12;;;;;;;;;;;;;;;;;;5060797;28;1528;-49
2021/11/12 10:33:37;;;;;;;;;;;;;;;;;;5062157;28;1553;-49
2021/11/12 10:36:02;;;;;;;;;;;;;;;;;;5063277;28;2015;-49
2021/11/12 10:38:35;;;;;;;;;;;;;;;;;;5047358;28;1584;-49
2021/11/12 10:41:06;;;;;;;;;;;;;;;;;;5061453;28;1349;-50
2021/11/12 10:43:35;;;;;;;;;;;;;;;;;;5049794;28;1612;-49
2021/11/12 10:46:06;;;;;;;;;;;;;;;;;;5067121;28;1001;-50
2021/11/12 10:48:31;;;;;;;;;;;;;;;;;;5068986;28;1116;-49
2021/11/12 10:50:57;;;;;;;;;;;;;;;;;;5063910;28;1928;-49
2021/11/12 10:53:23;;;;;;;;;;;;;;;;;;5066229;28;1339;-49
2021/11/12 10:55:55;;;;;;;;;;;;;;;;;;5068227;28;1938;-49
2021/11/12 10:58:20;;;;;;;;;;;;;;;;;;5066983;28;1148;-48
2021/11/12 11:00:47;;;;;;;;;;;;;;;;;;5064664;28;1609;-48
2021/11/12 11:03:13;;;;;;;;;;;;;;;;;;5066734;28;1439;-49
2021/11/12 11:05:38;;;;;;;;;;;;;;;;;;5066227;28;1454;-50
2021/11/12 11:08:24;;;;;;;;;;;;;;;;;;5068611;28;1270;-50
2021/11/12 11:10:54;;;;;;;;;;;;;;;;;;5068037;28;1375;-49
2021/11/12 11:13:20;;;;;;;;;;;;;;;;;;5068188;28;1625;-49
2021/11/12 11:15:46;;;;;;;;;;;;;;;;;;5067128;28;1905;-50
2021/11/12 11:18:22;;;;;;;;;;;;;;;;;;5051239;28;1765;-48
2021/11/12 11:23:41;;;;;;;;;;;;;;;;;;5058826;28;1853;-49
2021/11/12 11:26:06;;;;;;;;;;;;;;;;;;5066226;28;1624;-49
2021/11/12 11:28:32;;;;;;;;;;;;;;;;;;5065799;28;1859;-49
2021/11/12 11:30:58;;;;;;;;;;;;;;;;;;5068725;28;1482;-49
2021/11/12 11:33:24;;;;;;;;;;;;;;;;;;5065584;28;1077;-49
2021/11/12 11:35:55;;;;;;;;;;;;;;;;;;5067764;28;1959;-48
2021/11/12 11:38:20;;;;;;;;;;;;;;;;;;5063939;28;1236;-49
2021/11/12 11:40:45;;;;;;;;;;;;;;;;;;5066911;28;1215;-49
2021/11/12 11:43:11;;;;;;;;;;;;;;;;;;5047540;28;1660;-49
2021/11/12 11:45:36;;;;;;;;;;;;;;;;;;5049884;28;1343;-50
2021/11/12 11:48:02;;;;;;;;;;;;;;;;;;5069336;28;1215;-50
2021/11/12 11:50:28;;;;;;;;;;;;;;;;;;5050169;28;1497;-49
2021/11/12 11:52:53;;;;;;;;;;;;;;;;;;5063780;28;997;-49
2021/11/12 11:55:32;;;;;;;;;;;;;;;;;;5067565;28;1906;-49
2021/11/12 11:58:18;;;;;;;;;;;;;;;;;;5080457;28;1411;-49
2021/11/12 12:00:43;;;;;;;;;;;;;;;;;;5065995;28;1419;-49
2021/11/12 12:03:37;;;;;;;;;;;;;;;;;;5068920;28;1412;-48
2021/11/12 12:06:03;;;;;;;;;;;;;;;;;;5062097;28;1987;-49
2021/11/12 12:08:30;;;;;;;;;;;;;;;;;;5069331;28;997;-48
2021/11/12 12:11:14;;;;;;;;;;;;;;;;;;5066363;28;1513;-49
2021/11/12 12:13:39;;;;;;;;;;;;;;;;;;5063279;28;1594;-49
2021/11/12 12:16:05;;;;;;;;;;;;;;;;;;5064502;28;1949;-49
2021/11/12 12:18:31;;;;;;;;;;;;;;;;;;5068031;28;1180;-49
2021/11/12 12:21:40;;;;;;;;;;;;;;;;;;5067064;28;1540;-49
2021/11/12 12:36:17;;;;;;;;;;;;;;;;;;5064018;28;1910;-49
2021/11/12 12:42:33;;;;;;;;;;;;;;;;;;5030898;28;1572;-50
2021/11/12 13:20:22;;;;;;;;;;;;;;;;;;5066572;28;1576;-50
2021/11/12 13:25:35;;;;;;;;;;;;;;;;;;5064161;28;1600;-49
2021/11/12 13:28:19;;;;;;;;;;;;;;;;;;5061485;28;1428;-49
2021/11/12 13:30:47;;;;;;;;;;;;;;;;;;5066874;28;1477;-48
2021/11/12 13:33:28;;;;;;;;;;;;;;;;;;5064931;28;1569;-49
2021/11/12 13:35:54;;;;;;;;;;;;;;;;;;5066189;28;1910;-49
2021/11/12 13:38:19;;;;;;;;;;;;;;;;;;5064389;28;1589;-50
2021/11/12 13:40:44;;;;;;;;;;;;;;;;;;5065730;28;1302;-49
2021/11/12 13:43:09;;;;;;;;;;;;;;;;;;5065365;28;1548;-49
2021/11/12 13:45:34;;;;;;;;;;;;;;;;;;5064522;28;1096;-51
2021/11/12 13:48:00;;;;;;;;;;;;;;;;;;5061966;28;1456;-50
2021/11/12 13:50:25;;;;;;;;;;;;;;;;;;5063506;28;1465;-49
2021/11/12 13:52:50;;;;;;;;;;;;;;;;;;5063507;28;1120;-49
2021/11/12 13:55:16;;;;;;;;;;;;;;;;;;5047953;28;1906;-49
2021/11/12 13:57:57;;;;;;;;;;;;;;;;;;5062371;28;1522;-49
2021/11/12 14:00:26;;;;;;;;;;;;;;;;;;5063407;28;1280;-50
2021/11/12 14:03:07;;;;;;;;;;;;;;;;;;5064248;28;1652;-50
2021/11/12 14:05:36;;;;;;;;;;;;;;;;;;5060055;28;1540;-49
2021/11/12 14:08:02;;;;;;;;;;;;;;;;;;5062288;28;972;-49
2021/11/12 14:10:31;;;;;;;;;;;;;;;;;;5065901;28;1294;-51
2021/11/12 14:12:57;;;;;;;;;;;;;;;;;;5062084;28;1512;-50
2021/11/12 14:15:29;;;;;;;;;;;;;;;;;;5063709;28;1910;-49
2021/11/12 14:18:17;;;;;;;;;;;;;;;;;;5066933;28;1497;-49
2021/11/12 14:20:52;;;;;;;;;;;;;;;;;;5067037;28;1612;-48
2021/11/12 14:23:21;;;;;;;;;;;;;;;;;;5050533;28;1128;-49
2021/11/12 14:28:45;;;;;;;;;;;;;;;;;;5064586;28;1501;-48
2021/11/12 14:31:29;;;;;;;;;;;;;;;;;;5066191;28;1286;-48
2021/11/12 14:34:26;;;;;;;;;;;;;;;;;;5051951;28;1454;-47
2021/11/12 14:37:00;;;;;;;;;;;;;;;;;;5071103;28;1910;-48
2021/11/12 14:42:19;;;;;;;;;;;;;;;;;;5071197;28;1285;-49
2021/11/12 14:44:57;;;;;;;;;;;;;;;;;;5069440;28;1577;-48
2021/11/12 14:47:34;;;;;;;;;;;;;;;;;;5070181;28;1168;-48
2021/11/12 14:50:10;;;;;;;;;;;;;;;;;;5069436;28;1428;-49
2021/11/12 14:52:36;;;;;;;;;;;;;;;;;;5069626;28;1316;-48
2021/11/12 14:55:07;;;;;;;;;;;;;;;;;;5071118;28;1981;-50
2021/11/12 14:57:36;;;;;;;;;;;;;;;;;;5069770;28;1443;-50
2021/11/12 15:00:09;;;;;;;;;;;;;;;;;;5069265;28;1005;-49
2021/11/12 15:02:37;;;;;;;;;;;;;;;;;;5076101;22;1530;-86
2021/11/12 15:05:05;;;;;;;;;;;;;;;;;;5069864;28;1398;-86
2021/11/12 15:07:41;;;;;;;;;;;;;;;;;;5050032;28;1358;-86
2021/11/12 15:10:10;;;;;;;;;;;;;;;;;;5070078;28;970;-87
2021/11/12 15:12:37;;;;;;;;;;;;;;;;;;5069774;28;1046;-87
2021/11/12 15:15:02;;;;;;;;;;;;;;;;;;5073820;28;1918;-87
2021/11/12 15:17:29;;;;;;;;;;;;;;;;;;5052625;28;1330;-87
2021/11/12 15:19:54;;;;;;;;;;;;;;;;;;5069124;28;1751;-87
2021/11/12 15:30:06;;;;;;;;;;;;;;;;;;5070041;28;1490;-87
2021/11/12 15:32:52;;;;;;;;;;;;;;;;;;5070859;28;1238;-87
2021/11/12 15:35:21;;;;;;;;;;;;;;;;;;5069206;28;1898;-87
2021/11/12 15:37:54;;;;;;;;;;;;;;;;;;5067617;28;1399;-87
2021/11/12 15:40:26;;;;;;;;;;;;;;;;;;5070559;28;1016;-87
2021/11/12 15:46:12;;;;;;;;;;;;;;;;;;5023673;28;1303;-87
2021/11/12 15:48:39;;;;;;;;;;;;;;;;;;5069452;28;1439;-87
2021/11/12 15:51:22;;;;;;;;;;;;;;;;;;5068759;28;1657;-87
2021/11/12 15:56:40;;;;;;;;;;;;;;;;;;5070463;28;1959;-87
2021/11/12 16:19:54;;;;;;;;;;;;;;;;;;5069219;28;1387;-87
2021/11/12 16:22:30;;;;;;;;;;;;;;;;;;5068213;28;1454;-87
2021/11/12 16:27:23;;;;;;;;;;;;;;;;;;5049464;28;1380;-87
2021/11/12 16:29:51;;;;;;;;;;;;;;;;;;5068853;28;1391;-87
2021/11/12 16:32:24;;;;;;;;;;;;;;;;;;5069148;28;1083;-87
2021/11/12 16:34:54;;;;;;;;;;;;;;;;;;5069190;28;1505;-86
2021/11/12 16:37:21;;;;;;;;;;;;;;;;;;5068128;28;1894;-87
2021/11/12 16:42:32;;;;;;;;;;;;;;;;;;5067422;28;1576;-87
2021/11/12 16:47:33;;;;;;;;;;;;;;;;;;5050280;28;1410;-86
2021/11/12 16:52:42;;;;;;;;;;;;;;;;;;5067931;28;1034;-87
2021/11/12 17:02:47;;;;;;;;;;;;;;;;;;5066045;28;1403;-86
2021/11/12 17:11:16;;;;;;;;;;;;;;;;;;5015008;28;1247;-86
2021/11/12 17:48:38;;;;;;;;;;;;;;;;;;5067370;28;1377;-87
2021/11/12 21:45:20;;;;;;;;;;;;;;;;;;5045333;28;918;-53
2021/11/12 21:47:46;;;;;;;;;;;;;;;;;;5046247;28;1096;-53
2021/11/12 21:50:11;;;;;;;;;;;;;;;;;;5044546;28;1543;-53
2021/11/12 21:52:36;;;;;;;;;;;;;;;;;;5046869;28;1306;-53
2021/11/12 21:55:01;;;;;;;;;;;;;;;;;;5045398;28;1599;-51
2021/11/12 21:57:26;;;;;;;;;;;;;;;;;;5046045;28;1922;-53
2021/11/12 21:59:51;;;;;;;;;;;;;;;;;;5044427;28;1322;-53
2021/11/12 22:02:18;;;;;;;;;;;;;;;;;;5046490;28;1736;-52
2021/11/12 22:04:44;;;;;;;;;;;;;;;;;;5044110;28;1503;-52
2021/11/12 22:07:09;;;;;;;;;;;;;;;;;;5043402;28;1541;-52
2021/11/12 22:09:34;;;;;;;;;;;;;;;;;;5046769;28;1152;-53
2021/11/12 22:12:00;;;;;;;;;;;;;;;;;;5046247;28;1201;-53
2021/11/12 22:14:25;;;;;;;;;;;;;;;;;;5046622;28;1738;-53
2021/11/12 22:16:50;;;;;;;;;;;;;;;;;;5047199;28;1910;-53
2021/11/12 22:19:15;;;;;;;;;;;;;;;;;;5043925;28;1527;-53
2021/11/12 22:21:41;;;;;;;;;;;;;;;;;;5046432;28;1376;-52
2021/11/12 22:24:06;;;;;;;;;;;;;;;;;;5047382;28;1232;-53
2021/11/12 22:26:31;;;;;;;;;;;;;;;;;;5044079;28;1637;-52
2021/11/12 22:28:56;;;;;;;;;;;;;;;;;;5047739;28;1208;-53
2021/11/12 22:31:21;;;;;;;;;;;;;;;;;;5042834;28;1518;-53
2021/11/12 22:33:47;;;;;;;;;;;;;;;;;;5044596;28;1408;-51
2021/11/12 22:36:13;;;;;;;;;;;;;;;;;;5044107;28;1906;-53
2021/11/12 22:38:38;;;;;;;;;;;;;;;;;;5048358;28;1258;-53
2021/11/12 22:41:04;;;;;;;;;;;;;;;;;;5047953;28;1657;-53
2021/11/12 22:43:29;;;;;;;;;;;;;;;;;;5049100;28;1614;-52
2021/11/12 22:45:54;;;;;;;;;;;;;;;;;;5049071;28;1172;-53
2021/11/12 22:48:19;;;;;;;;;;;;;;;;;;5048395;28;1491;-55
2021/11/12 22:50:45;;;;;;;;;;;;;;;;;;5047552;28;1523;-53
2021/11/12 22:53:10;;;;;;;;;;;;;;;;;;5049189;28;1469;-53
2021/11/12 22:55:35;;;;;;;;;;;;;;;;;;5050747;28;1971;-52
2021/11/12 22:58:00;;;;;;;;;;;;;;;;;;5048553;28;1513;-53
2021/11/12 23:00:26;;;;;;;;;;;;;;;;;;5049571;28;1475;-52
2021/11/12 23:02:51;;;;;;;;;;;;;;;;;;5049741;28;1243;-54
2021/11/12 23:05:16;;;;;;;;;;;;;;;;;;5046109;28;1479;-52
2021/11/12 23:07:41;;;;;;;;;;;;;;;;;;5049292;28;1637;-53
2021/11/12 23:10:07;;;;;;;;;;;;;;;;;;5043004;28;1572;-53
2021/11/12 23:12:32;;;;;;;;;;;;;;;;;;5048659;28;1672;-53
2021/11/12 23:14:57;;;;;;;;;;;;;;;;;;5050037;28;1492;-53
2021/11/12 23:17:22;;;;;;;;;;;;;;;;;;5047335;28;1957;-53
2021/11/12 23:19:47;;;;;;;;;;;;;;;;;;5044028;28;1535;-53
2021/11/12 23:22:13;;;;;;;;;;;;;;;;;;5049679;28;1366;-53
2021/11/12 23:24:38;;;;;;;;;;;;;;;;;;5049363;28;1109;-53
2021/11/12 23:27:03;;;;;;;;;;;;;;;;;;5049427;28;1594;-53
2021/11/12 23:29:28;;;;;;;;;;;;;;;;;;5046906;28;1653;-53
2021/11/12 23:31:53;;;;;;;;;;;;;;;;;;5048875;28;1543;-54
2021/11/12 23:34:19;;;;;;;;;;;;;;;;;;5047024;28;1400;-53
2021/11/12 23:36:44;;;;;;;;;;;;;;;;;;5049009;28;1906;-52
2021/11/12 23:39:09;;;;;;;;;;;;;;;;;;5050259;28;1137;-53
2021/11/12 23:41:34;;;;;;;;;;;;;;;;;;5045845;28;1720;-52
2021/11/12 23:43:59;;;;;;;;;;;;;;;;;;5046982;28;1389;-53
2021/11/12 23:46:24;;;;;;;;;;;;;;;;;;5048296;28;1618;-53
2021/11/12 23:48:50;;;;;;;;;;;;;;;;;;5047871;28;1365;-52
2021/11/12 23:51:15;;;;;;;;;;;;;;;;;;5044794;28;1652;-52
2021/11/12 23:53:40;;;;;;;;;;;;;;;;;;5049827;28;1302;-53
2021/11/12 23:56:05;;;;;;;;;;;;;;;;;;5047345;28;1934;-53
2021/11/12 23:58:30;;;;;;;;;;;;;;;;;;5047921;28;1480;-54
